createdAt,value
2023-03-03T00:01:10.405Z,28.63
2023-03-03T00:03:39.061Z,26.83
2023-03-03T00:06:09.979Z,24.42
2023-03-03T00:08:38.260Z,23.85
2023-03-03T00:11:08.919Z,23.98
2023-03-03T00:13:46.374Z,23.02
2023-03-03T00:16:17.975Z,27.38
2023-03-03T00:18:49.507Z,25.85
2023-03-03T00:21:34.527Z,21.80
2023-03-03T00:24:28.784Z,25.25
2023-03-03T00:26:58.602Z,21.63
2023-03-03T00:29:36.880Z,30.10
2023-03-03T00:32:23.785Z,27.13
2023-03-03T00:34:53.551Z,28.67
2023-03-03T00:37:29.145Z,26.80
2023-03-03T00:40:25.889Z,27.10
2023-03-03T00:42:56.245Z,17.77
2023-03-03T00:45:32.863Z,23.85
2023-03-03T00:48:17.681Z,25.67
2023-03-03T00:50:46.059Z,27.10
2023-03-03T00:53:17.766Z,18.85
2023-03-03T00:55:47.265Z,20.23
2023-03-03T00:58:16.142Z,23.48
2023-03-03T01:00:49.861Z,22.67
2023-03-03T01:03:22.441Z,23.98
2023-03-03T01:05:51.331Z,24.85
2023-03-03T01:08:19.817Z,24.27
2023-03-03T01:10:51.871Z,24.83
2023-03-03T01:13:21.700Z,20.50
2023-03-03T01:15:51.817Z,19.00
2023-03-03T01:18:20.613Z,23.45
2023-03-03T01:20:49.194Z,22.45
2023-03-03T01:23:17.393Z,29.83
2023-03-03T01:25:45.576Z,29.73
2023-03-03T01:28:13.768Z,26.08
2023-03-03T01:30:42.017Z,24.98
2023-03-03T01:33:11.772Z,21.13
2023-03-03T01:35:44.256Z,22.25
2023-03-03T01:38:12.491Z,27.40
2023-03-03T01:40:41.674Z,21.45
2023-03-03T01:43:16.374Z,18.30
2023-03-03T01:46:24.666Z,24.63
2023-03-03T01:49:02.864Z,23.88
2023-03-03T01:51:34.768Z,21.48
2023-03-03T01:54:05.703Z,23.15
2023-03-03T01:56:34.277Z,21.50
2023-03-03T01:59:07.829Z,26.27
2023-03-03T02:01:36.076Z,23.13
2023-03-03T02:04:06.030Z,19.48
2023-03-03T02:06:38.008Z,20.85
2023-03-03T02:09:10.724Z,20.23
2023-03-03T02:11:41.700Z,21.85
2023-03-03T02:14:09.980Z,24.65
2023-03-03T02:16:40.822Z,21.90
2023-03-03T02:19:22.597Z,25.88
2023-03-03T02:21:53.110Z,26.00
2023-03-03T02:24:28.590Z,27.55
2023-03-03T02:26:58.554Z,25.58
2023-03-03T02:29:27.475Z,22.95
2023-03-03T02:31:55.880Z,28.00
2023-03-03T02:34:24.153Z,22.67
2023-03-03T02:36:53.466Z,23.30
2023-03-03T02:39:23.492Z,21.05
2023-03-03T02:41:56.923Z,24.25
2023-03-03T02:44:33.464Z,38.33
2023-03-03T02:47:02.349Z,23.33
2023-03-03T02:49:32.535Z,30.08
2023-03-03T02:52:02.037Z,32.13
2023-03-03T02:54:31.831Z,30.83
2023-03-03T02:57:02.007Z,28.00
2023-03-03T02:59:31.771Z,19.38
2023-03-03T03:02:07.391Z,21.38
2023-03-03T03:04:36.573Z,24.13
2023-03-03T03:07:05.867Z,24.50
2023-03-03T03:09:37.240Z,21.33
2023-03-03T03:12:06.334Z,18.90
2023-03-03T03:14:37.672Z,18.35
2023-03-03T03:17:07.366Z,19.80
2023-03-03T03:19:35.591Z,26.58
2023-03-03T03:22:04.508Z,23.73
2023-03-03T03:24:35.643Z,24.02
2023-03-03T03:27:07.676Z,19.10
2023-03-03T03:29:37.393Z,21.48
2023-03-03T03:32:07.417Z,20.80
2023-03-03T03:34:35.844Z,18.52
2023-03-03T03:37:05.393Z,13.18
2023-03-03T03:39:33.952Z,22.30
2023-03-03T03:42:02.661Z,18.35
2023-03-03T03:44:30.914Z,17.80
2023-03-03T03:47:00.525Z,16.63
2023-03-03T03:49:28.818Z,19.38
2023-03-03T03:51:59.330Z,18.35
2023-03-03T03:54:31.393Z,17.85
2023-03-03T03:56:59.874Z,21.63
2023-03-03T03:59:29.219Z,28.63
2023-03-03T04:01:58.210Z,27.52
2023-03-03T04:04:28.860Z,22.83
2023-03-03T04:06:57.298Z,27.02
2023-03-03T04:09:25.668Z,24.00
2023-03-03T04:11:53.897Z,21.25
2023-03-03T04:14:22.190Z,16.55
2023-03-03T04:16:50.383Z,24.80
2023-03-03T04:19:18.818Z,19.95
2023-03-03T04:21:48.392Z,24.58
2023-03-03T04:24:16.990Z,39.17
2023-03-03T04:26:45.318Z,25.17
2023-03-03T04:29:13.913Z,25.75
2023-03-03T04:31:44.942Z,26.45
2023-03-03T04:34:13.531Z,23.63
2023-03-03T04:36:44.207Z,23.27
2023-03-03T04:39:14.158Z,15.70
2023-03-03T04:41:42.613Z,19.23
2023-03-03T04:44:11.177Z,23.70
2023-03-03T04:46:39.458Z,18.92
2023-03-03T04:49:10.214Z,25.80
2023-03-03T04:51:39.778Z,19.17
2023-03-03T04:54:08.291Z,21.38
2023-03-03T04:56:38.347Z,24.92
2023-03-03T04:59:06.715Z,20.42
2023-03-03T05:01:34.990Z,25.20
2023-03-03T05:04:04.459Z,18.77
2023-03-03T05:06:32.672Z,28.42
2023-03-03T05:09:00.864Z,24.35
2023-03-03T05:11:29.032Z,20.45
2023-03-03T05:13:58.586Z,19.90
2023-03-03T05:16:27.169Z,22.48
2023-03-03T05:18:55.433Z,27.20
2023-03-03T05:21:23.648Z,27.80
2023-03-03T05:23:52.569Z,24.48
2023-03-03T05:26:20.875Z,31.67
2023-03-03T05:28:49.251Z,32.55
2023-03-03T05:31:18.855Z,25.83
2023-03-03T05:33:47.092Z,39.15
2023-03-03T05:36:15.293Z,28.42
2023-03-03T05:38:43.476Z,29.95
2023-03-03T05:41:11.671Z,32.25
2023-03-03T05:43:39.871Z,31.73
2023-03-03T05:46:08.236Z,30.20
2023-03-03T05:48:37.879Z,29.75
2023-03-03T05:51:06.339Z,41.08
2023-03-03T05:53:34.597Z,29.20
2023-03-03T05:56:02.779Z,30.85
2023-03-03T05:58:31.426Z,40.53
2023-03-03T06:00:59.673Z,42.72
2023-03-03T06:03:27.952Z,25.50
2023-03-03T06:05:57.533Z,29.55
2023-03-03T06:08:25.931Z,30.45
2023-03-03T06:10:54.109Z,27.63
2023-03-03T06:13:22.418Z,26.88
2023-03-03T06:15:50.609Z,44.25
2023-03-03T06:18:18.829Z,30.92
2023-03-03T06:20:51.773Z,33.75
2023-03-03T06:23:21.415Z,17.70
2023-03-03T06:25:49.607Z,26.08
2023-03-03T06:28:17.998Z,27.15
2023-03-03T06:30:46.357Z,24.30
2023-03-03T06:33:14.611Z,21.08
2023-03-03T06:35:51.370Z,21.77
2023-03-03T06:38:21.709Z,25.33
2023-03-03T06:40:51.879Z,24.58
2023-03-03T06:43:20.504Z,23.52
2023-03-03T06:45:48.818Z,23.70
2023-03-03T06:48:17.024Z,26.08
2023-03-03T06:50:47.666Z,26.05
2023-03-03T06:53:18.086Z,41.90
2023-03-03T06:55:47.886Z,34.45
2023-03-03T06:58:17.990Z,39.30
2023-03-03T07:00:51.070Z,41.28
2023-03-03T07:03:22.715Z,50.80
2023-03-03T07:05:51.533Z,44.83
2023-03-03T07:08:22.004Z,40.78
2023-03-03T07:10:52.947Z,40.33
2023-03-03T07:13:23.918Z,40.45
2023-03-03T07:15:54.521Z,47.58
2023-03-03T07:18:38.149Z,58.30
2023-03-03T07:21:17.851Z,61.83
2023-03-03T07:23:47.655Z,44.10
2023-03-03T07:26:19.058Z,51.28
2023-03-03T07:28:55.134Z,54.08
2023-03-03T07:31:31.329Z,37.72
2023-03-03T07:34:01.588Z,35.47
2023-03-03T07:36:32.191Z,25.40
2023-03-03T07:39:02.251Z,28.23
2023-03-03T07:41:33.042Z,30.92
2023-03-03T07:44:06.193Z,29.58
2023-03-03T07:46:42.672Z,35.05
2023-03-03T07:49:22.918Z,30.17
2023-03-03T07:51:57.353Z,28.50
2023-03-03T07:54:32.892Z,31.23
2023-03-03T07:57:14.061Z,31.70
2023-03-03T07:59:48.600Z,30.13
2023-03-03T08:02:38.197Z,29.27
2023-03-03T08:05:35.826Z,32.65
2023-03-03T08:08:22.906Z,28.30
2023-03-03T08:10:53.633Z,36.50
2023-03-03T08:13:25.100Z,28.08
2023-03-03T08:16:02.266Z,32.13
2023-03-03T08:18:36.943Z,31.50
2023-03-03T08:21:09.980Z,33.10
2023-03-03T08:23:38.153Z,34.50
2023-03-03T08:26:06.565Z,28.88
2023-03-03T08:28:36.254Z,28.08
2023-03-03T08:31:16.866Z,35.97
2023-03-03T08:33:48.529Z,31.88
2023-03-03T08:36:16.708Z,40.38
2023-03-03T08:38:47.598Z,33.45
2023-03-03T08:41:15.861Z,35.15
2023-03-03T08:43:45.685Z,31.88
2023-03-03T08:46:14.009Z,39.83
2023-03-03T08:48:42.378Z,34.33
2023-03-03T08:51:10.610Z,36.45
2023-03-03T08:53:38.855Z,32.28
2023-03-03T08:56:07.950Z,41.83
2023-03-03T08:58:36.743Z,46.60
2023-03-03T09:01:06.677Z,38.75
2023-03-03T09:03:34.813Z,50.88
2023-03-03T09:06:02.955Z,42.03
2023-03-03T09:08:31.136Z,43.08
2023-03-03T09:10:59.311Z,34.60
2023-03-03T09:13:29.929Z,24.70
2023-03-03T09:15:59.369Z,46.90
2023-03-03T09:18:33.633Z,55.50
2023-03-03T09:21:01.858Z,39.38
2023-03-03T09:23:35.890Z,57.58
2023-03-03T09:26:26.889Z,48.10
2023-03-03T09:28:56.334Z,24.92
2023-03-03T09:31:28.550Z,36.70
2023-03-03T09:33:59.427Z,52.17
2023-03-03T09:36:29.817Z,54.92
2023-03-03T09:38:59.135Z,56.60
2023-03-03T09:42:13.850Z,53.55
2023-03-03T09:44:59.120Z,56.72
2023-03-03T09:47:43.120Z,50.97
2023-03-03T09:50:27.018Z,53.17
2023-03-03T09:53:09.917Z,27.58
2023-03-03T09:55:46.188Z,41.58
2023-03-03T09:58:31.716Z,106.95
2023-03-03T10:01:16.293Z,73.32
2023-03-03T10:04:17.288Z,62.28
2023-03-03T10:06:50.612Z,55.22
2023-03-03T10:09:47.961Z,49.28
2023-03-03T10:12:22.539Z,49.28
2023-03-03T10:15:19.605Z,43.03
2023-03-03T10:17:53.277Z,38.17
2023-03-03T10:20:49.620Z,44.13
2023-03-03T10:23:31.979Z,42.58
2023-03-03T10:26:11.467Z,35.83
2023-03-03T10:29:05.177Z,45.65
2023-03-03T10:31:46.034Z,37.22
2023-03-03T10:34:30.828Z,38.38
2023-03-03T10:37:06.851Z,50.38
2023-03-03T10:39:49.906Z,27.70
2023-03-03T10:42:31.211Z,48.83
2023-03-03T10:45:40.184Z,46.10
2023-03-03T10:48:34.774Z,38.00
2023-03-03T10:51:19.376Z,36.65
2023-03-03T10:53:58.384Z,37.78
2023-03-03T10:56:52.119Z,49.22
2023-03-03T10:59:37.648Z,22.25
2023-03-03T11:02:16.191Z,37.40
2023-03-03T11:05:07.196Z,41.55
2023-03-03T11:07:41.880Z,36.80
2023-03-03T11:10:25.660Z,50.33
2023-03-03T11:13:10.783Z,43.17
2023-03-03T11:15:49.925Z,42.33
2023-03-03T11:18:29.985Z,33.50
2023-03-03T11:21:10.002Z,46.05
2023-03-03T11:24:00.925Z,37.40
2023-03-03T11:26:44.573Z,37.25
2023-03-03T11:29:26.061Z,20.90
2023-03-03T11:31:58.082Z,36.10
2023-03-03T11:34:48.922Z,38.65
2023-03-03T11:37:23.431Z,44.75
2023-03-03T11:39:55.514Z,35.38
2023-03-03T11:42:29.588Z,35.67
2023-03-03T11:45:04.246Z,35.13
2023-03-03T11:47:39.244Z,32.30
2023-03-03T11:50:17.418Z,35.83
2023-03-03T11:52:53.159Z,44.40
2023-03-03T11:55:28.335Z,42.13
2023-03-03T11:58:08.968Z,14.70
2023-03-03T12:00:44.215Z,33.25
2023-03-03T12:03:21.088Z,36.65
2023-03-03T12:05:58.059Z,42.08
2023-03-03T12:08:43.955Z,13.77
2023-03-03T12:11:23.042Z,23.67
2023-03-03T12:13:57.853Z,42.22
2023-03-03T12:16:40.639Z,16.10
2023-03-03T12:19:26.065Z,8.18
2023-03-03T12:22:11.884Z,33.28
2023-03-03T12:25:02.856Z,26.75
2023-03-03T12:27:38.424Z,39.67
2023-03-03T12:30:16.247Z,9.30
2023-03-03T12:33:08.730Z,22.48
2023-03-03T12:35:42.465Z,33.58
2023-03-03T12:38:23.677Z,24.10
2023-03-03T12:41:01.606Z,29.15
2023-03-03T12:43:42.053Z,30.75
2023-03-03T12:46:20.119Z,23.05
2023-03-03T12:48:52.581Z,23.25
2023-03-03T12:51:32.506Z,27.25
2023-03-03T12:54:15.256Z,26.67
2023-03-03T12:56:47.146Z,27.25
2023-03-03T12:59:21.849Z,28.27
2023-03-03T13:02:19.281Z,37.13
2023-03-03T13:04:54.867Z,24.33
2023-03-03T13:07:27.920Z,17.90
2023-03-03T13:10:09.241Z,27.90
2023-03-03T13:12:44.388Z,18.20
2023-03-03T13:15:18.385Z,21.58
2023-03-03T13:17:55.408Z,15.10
2023-03-03T13:20:35.529Z,23.60
2023-03-03T13:23:09.974Z,20.73
2023-03-03T13:25:48.745Z,16.42
2023-03-03T13:28:26.103Z,17.80
2023-03-03T13:30:59.325Z,14.70
2023-03-03T13:33:29.382Z,26.33
2023-03-03T13:36:03.043Z,6.32
2023-03-03T13:38:34.001Z,20.63
2023-03-03T13:41:08.090Z,16.83
2023-03-03T13:43:44.414Z,13.95
2023-03-03T13:46:19.547Z,19.27
2023-03-03T13:49:32.801Z,21.17
2023-03-03T13:52:07.156Z,16.55
2023-03-03T13:55:00.740Z,25.95
2023-03-03T13:57:50.276Z,31.75
2023-03-03T14:00:27.640Z,29.13
2023-03-03T14:03:10.413Z,6.78
2023-03-03T14:05:42.533Z,18.95
2023-03-03T14:08:21.427Z,16.95
2023-03-03T14:11:00.268Z,22.40
2023-03-03T14:13:32.911Z,31.17
2023-03-03T14:16:08.467Z,21.67
2023-03-03T14:18:40.363Z,20.88
2023-03-03T14:21:12.837Z,16.95
2023-03-03T14:23:52.828Z,19.25
2023-03-03T14:26:21.168Z,19.02
2023-03-03T14:28:52.389Z,39.08
2023-03-03T14:31:24.974Z,29.27
2023-03-03T14:34:01.165Z,27.30
2023-03-03T14:36:32.518Z,13.95
2023-03-03T14:39:02.504Z,22.60
2023-03-03T14:41:41.493Z,17.75
2023-03-03T14:44:36.696Z,21.02
2023-03-03T14:47:22.470Z,24.27
2023-03-03T14:49:51.795Z,21.35
2023-03-03T14:52:26.416Z,11.40
2023-03-03T14:54:58.181Z,21.05
2023-03-03T14:57:46.443Z,20.13
2023-03-03T15:00:31.671Z,25.98
2023-03-03T15:03:04.662Z,24.20
2023-03-03T15:05:34.092Z,23.80
2023-03-03T15:08:10.989Z,19.48
2023-03-03T15:10:42.461Z,10.38
2023-03-03T15:13:33.921Z,17.88
2023-03-03T15:16:12.062Z,8.68
2023-03-03T15:19:14.178Z,11.02
2023-03-03T15:21:49.654Z,22.33
2023-03-03T15:24:24.910Z,10.55
2023-03-03T15:27:00.416Z,22.70
2023-03-03T15:29:33.175Z,4.85
2023-03-03T15:32:08.995Z,13.50
2023-03-03T15:34:43.376Z,25.95
2023-03-03T15:37:28.466Z,20.02
2023-03-03T15:40:05.976Z,10.90
2023-03-03T15:42:42.777Z,19.00
2023-03-03T15:45:21.148Z,22.17
2023-03-03T15:48:04.305Z,21.90
2023-03-03T15:50:45.537Z,21.13
2023-03-03T15:53:30.894Z,9.18
2023-03-03T15:56:16.824Z,16.23
2023-03-03T15:59:11.060Z,23.10
2023-03-03T16:01:45.152Z,24.85
2023-03-03T16:04:16.774Z,22.45
2023-03-03T16:06:50.988Z,17.45
2023-03-03T16:09:31.943Z,22.60
2023-03-03T16:12:08.257Z,20.90
2023-03-03T16:15:00.857Z,19.25
2023-03-03T16:17:36.983Z,21.83
2023-03-03T16:20:18.201Z,20.33
2023-03-03T16:23:11.312Z,11.32
2023-03-03T16:26:03.336Z,13.23
2023-03-03T16:28:44.149Z,20.38
2023-03-03T16:31:20.573Z,7.97
2023-03-03T16:33:55.268Z,18.70
2023-03-03T16:36:33.378Z,22.83
2023-03-03T16:39:07.661Z,21.63
2023-03-03T16:41:45.227Z,18.10
2023-03-03T16:44:30.924Z,26.88
2023-03-03T16:47:17.402Z,18.50
2023-03-03T16:49:51.656Z,24.42
2023-03-03T16:52:24.844Z,15.85
2023-03-03T16:54:57.890Z,22.67
2023-03-03T16:57:32.604Z,16.83
2023-03-03T17:00:09.387Z,13.48
2023-03-03T17:02:56.098Z,19.67
2023-03-03T17:05:35.127Z,21.42
2023-03-03T17:08:24.103Z,16.77
2023-03-03T17:11:00.466Z,27.02
2023-03-03T17:13:58.937Z,28.67
2023-03-03T17:16:50.059Z,16.33
2023-03-03T17:19:34.643Z,25.42
2023-03-03T17:22:15.671Z,16.33
2023-03-03T17:24:56.502Z,29.15
2023-03-03T17:27:35.141Z,30.52
2023-03-03T17:30:10.789Z,33.70
2023-03-03T17:33:00.084Z,27.45
2023-03-03T17:35:53.276Z,27.50
2023-03-03T17:38:32.957Z,13.32
2023-03-03T17:41:07.772Z,20.85
2023-03-03T17:43:43.577Z,19.73
2023-03-03T17:46:19.034Z,25.42
2023-03-03T17:49:20.900Z,28.10
2023-03-03T17:52:14.447Z,32.15
2023-03-03T17:55:04.642Z,12.75
2023-03-03T17:57:48.464Z,28.10
2023-03-03T18:00:37.607Z,21.40
2023-03-03T18:03:45.108Z,21.35
2023-03-03T18:06:52.111Z,19.08
2023-03-03T18:09:35.528Z,23.70
2023-03-03T18:12:13.320Z,25.35
2023-03-03T18:14:58.827Z,29.92
2023-03-03T18:17:56.015Z,21.58
2023-03-03T18:20:44.779Z,25.38
2023-03-03T18:23:42.733Z,29.27
2023-03-03T18:26:33.697Z,18.88
2023-03-03T18:29:21.928Z,28.30
2023-03-03T18:32:05.835Z,32.53
2023-03-03T18:34:41.787Z,32.88
2023-03-03T18:37:12.195Z,16.48
2023-03-03T18:39:43.369Z,23.67
2023-03-03T18:42:38.196Z,29.52
2023-03-03T18:45:51.435Z,29.70
2023-03-03T18:48:22.034Z,31.98
2023-03-03T18:50:52.478Z,19.52
2023-03-03T18:53:26.625Z,33.92
2023-03-03T18:55:56.613Z,15.45
2023-03-03T18:58:40.811Z,23.10
2023-03-03T19:01:36.694Z,22.30
2023-03-03T19:04:20.952Z,21.33
2023-03-03T19:07:18.871Z,16.77
2023-03-03T19:09:56.873Z,20.55
2023-03-03T19:12:57.944Z,19.33
2023-03-03T19:15:52.184Z,16.17
2023-03-03T19:18:23.642Z,24.85
2023-03-03T19:20:58.409Z,37.33
2023-03-03T19:23:47.035Z,34.28
2023-03-03T19:26:38.209Z,26.65
2023-03-03T19:29:16.704Z,38.13
2023-03-03T19:31:52.342Z,28.77
2023-03-03T19:34:30.963Z,32.88
2023-03-03T19:37:05.865Z,19.85
2023-03-03T19:39:52.416Z,6.47
2023-03-03T19:42:32.021Z,21.40
2023-03-03T19:45:19.205Z,29.85
2023-03-03T19:47:55.510Z,28.98
2023-03-03T19:50:34.449Z,19.90
2023-03-03T19:53:14.195Z,37.80
2023-03-03T19:55:56.693Z,29.30
2023-03-03T19:58:38.593Z,14.63
2023-03-03T20:01:15.083Z,9.43
2023-03-03T20:04:12.997Z,33.97
2023-03-03T20:06:57.098Z,50.90
2023-03-03T20:09:37.135Z,20.73
2023-03-03T20:12:29.821Z,29.25
2023-03-03T20:15:09.639Z,31.10
2023-03-03T20:17:48.036Z,44.45
2023-03-03T20:21:02.840Z,39.42
2023-03-03T20:23:40.743Z,42.55
2023-03-03T20:26:16.471Z,20.13
2023-03-03T20:29:03.951Z,34.17
2023-03-03T20:31:39.001Z,20.05
2023-03-03T20:34:15.399Z,16.98
2023-03-03T20:36:56.253Z,28.70
2023-03-03T20:39:52.380Z,42.58
2023-03-03T20:42:30.987Z,28.40
2023-03-03T20:45:19.857Z,33.92
2023-03-03T20:47:59.231Z,16.48
2023-03-03T20:50:37.176Z,18.17
2023-03-03T20:53:18.063Z,30.85
2023-03-03T20:55:56.383Z,27.63
2023-03-03T20:58:35.114Z,31.15
2023-03-03T21:01:10.636Z,19.13
2023-03-03T21:03:42.009Z,26.75
2023-03-03T21:06:16.208Z,14.35
2023-03-03T21:08:53.305Z,18.95
2023-03-03T21:11:24.666Z,31.42
2023-03-03T21:13:54.432Z,35.55
2023-03-03T21:16:34.538Z,33.75
2023-03-03T21:19:04.742Z,18.83
2023-03-03T21:21:35.333Z,35.80
2023-03-03T21:24:03.573Z,8.48
2023-03-03T21:26:51.841Z,41.92
2023-03-03T21:29:23.159Z,37.75
2023-03-03T21:31:53.100Z,20.45
2023-03-03T21:34:32.678Z,26.35
2023-03-03T21:37:01.875Z,22.77
2023-03-03T21:39:32.426Z,41.65
2023-03-03T21:42:04.348Z,18.85
2023-03-03T21:44:38.551Z,23.15
2023-03-03T21:47:07.804Z,31.88
2023-03-03T21:49:36.473Z,21.60
2023-03-03T21:52:04.732Z,12.57
2023-03-03T21:54:32.925Z,23.50
2023-03-03T21:57:02.572Z,42.60
2023-03-03T21:59:31.283Z,43.03
2023-03-03T22:01:59.757Z,32.63
2023-03-03T22:04:28.025Z,34.95
2023-03-03T22:06:56.197Z,19.15
2023-03-03T22:09:25.048Z,38.72
2023-03-03T22:11:53.280Z,41.83
2023-03-03T22:14:22.839Z,39.88
2023-03-03T22:16:51.015Z,33.97
2023-03-03T22:19:19.215Z,33.22
2023-03-03T22:21:49.640Z,53.25
2023-03-03T22:24:18.077Z,38.85
2023-03-03T22:26:46.332Z,56.65
2023-03-03T22:29:16.710Z,58.92
2023-03-03T22:31:46.257Z,41.17
2023-03-03T22:34:14.595Z,30.23
2023-03-03T22:36:42.835Z,37.45
2023-03-03T22:39:11.475Z,54.42
2023-03-03T22:41:39.698Z,45.10
2023-03-03T22:44:07.905Z,32.28
2023-03-03T22:46:36.146Z,32.63
2023-03-03T22:49:05.905Z,41.28
2023-03-03T22:51:34.056Z,46.05
2023-03-03T22:54:02.242Z,64.13
2023-03-03T22:56:32.676Z,65.53
2023-03-03T22:59:00.879Z,18.38
2023-03-03T23:01:29.122Z,9.73
2023-03-03T23:03:57.296Z,52.83
2023-03-03T23:06:31.717Z,50.33
2023-03-03T23:08:59.896Z,27.20
2023-03-03T23:11:28.120Z,28.50
2023-03-03T23:13:56.400Z,46.53
2023-03-03T23:16:24.682Z,47.78
2023-03-03T23:18:52.867Z,41.25
2023-03-03T23:21:21.241Z,29.27
2023-03-03T23:23:50.761Z,33.00
2023-03-03T23:26:18.949Z,20.10
2023-03-03T23:28:47.223Z,14.35
2023-03-03T23:31:15.453Z,27.25
2023-03-03T23:33:43.612Z,19.58
2023-03-03T23:36:11.942Z,42.75
2023-03-03T23:38:42.699Z,17.65
2023-03-03T23:41:12.692Z,15.40
2023-03-03T23:43:40.846Z,31.35
2023-03-03T23:46:09.101Z,41.78
2023-03-03T23:48:37.294Z,31.02
2023-03-03T23:51:05.797Z,26.27
2023-03-03T23:53:34.013Z,38.08
2023-03-03T23:56:02.217Z,35.22
2023-03-03T23:58:31.783Z,20.35
